Time;durP1;ratioP1;P1;durP2;ratioP2;P2;SDS_P1;SDS_P2;PMS_P1;PMS_P2;Temp;Humidity;BMP_temperature;BMP_pressure;BME280_temperature;BME280_humidity;BME280_pressure;Samples;Min_cycle;Max_cycle;Signal;HPM_P1;HPM_P2
2021/10/05 00:00:43;;;;;;;11.70;6.30;;;358.70;2278.40;;;;;;5111430;28;20059;-78
2021/10/05 00:03:09;;;;;;;13.55;6.93;;;358.70;2278.40;;;;;;5111490;28;20026;-76
2021/10/05 00:05:34;;;;;;;15.40;6.93;;;358.70;2278.40;;;;;;5110635;28;20050;-76
2021/10/05 00:08:00;;;;;;;12.77;6.00;;;358.80;2278.40;;;;;;5093106;28;20044;-76
2021/10/05 00:10:26;;;;;;;12.38;6.60;;;358.80;2278.40;;;;;;5092894;28;20034;-80
2021/10/05 00:12:52;;;;;;;17.80;6.90;;;358.80;2278.40;;;;;;5094212;28;20055;-79
2021/10/05 00:15:19;;;;;;;14.23;7.18;;;358.70;2278.40;;;;;;5093298;28;20080;-77
2021/10/05 00:17:46;;;;;;;15.07;6.85;;;358.80;2278.40;;;;;;5092981;28;20093;-76
2021/10/05 00:20:12;;;;;;;12.93;7.30;;;358.90;2252.80;;;;;;5094149;28;20468;-79
2021/10/05 00:22:39;;;;;;;16.52;6.75;;;358.90;2278.40;;;;;;5092705;28;20024;-77
2021/10/05 00:25:06;;;;;;;13.20;6.57;;;358.90;2278.40;;;;;;5110712;28;20032;-79
2021/10/05 00:27:31;;;;;;;14.13;6.90;;;358.90;2278.40;;;;;;5095223;28;20024;-79
2021/10/05 00:30:09;;;;;;;17.15;6.93;;;359.00;2278.40;;;;;;5094248;28;20089;-77
2021/10/05 00:32:37;;;;;;;11.82;6.97;;;359.00;2278.40;;;;;;5094747;28;20072;-75
2021/10/05 00:35:05;;;;;;;18.73;7.20;;;358.90;2278.40;;;;;;5103471;28;20051;-75
2021/10/05 00:37:31;;;;;;;10.38;6.28;;;359.00;2278.40;;;;;;5093744;28;20562;-76
2021/10/05 00:39:57;;;;;;;17.65;7.05;;;359.00;2252.80;;;;;;5093916;28;20055;-76
2021/10/05 00:42:23;;;;;;;12.65;6.25;;;359.00;2278.40;;;;;;5110900;28;20030;-76
2021/10/05 00:44:49;;;;;;;19.52;6.82;;;359.00;2252.80;;;;;;5092300;28;20023;-76
2021/10/05 00:47:16;;;;;;;12.85;6.35;;;359.00;2252.80;;;;;;5109707;28;20024;-76
2021/10/05 00:49:44;;;;;;;14.00;7.07;;;359.00;2252.80;;;;;;5093068;28;20031;-76
2021/10/05 00:52:11;;;;;;;27.55;7.45;;;359.00;2252.80;;;;;;5111381;28;20019;-78
2021/10/05 00:54:47;;;;;;;16.60;6.75;;;359.00;2252.80;;;;;;5095742;28;20068;-78
2021/10/05 00:57:14;;;;;;;14.85;6.50;;;359.00;2252.80;;;;;;5092183;28;20395;-78
2021/10/05 00:59:40;;;;;;;17.55;7.68;;;359.00;2278.40;;;;;;5119480;28;20019;-78
2021/10/05 01:02:08;;;;;;;20.27;7.05;;;358.90;2278.40;;;;;;5120481;28;20023;-76
2021/10/05 01:04:34;;;;;;;22.15;9.10;;;359.00;2278.40;;;;;;5089482;28;20031;-76
2021/10/05 01:07:08;;;;;;;11.20;6.72;;;359.00;2278.40;;;;;;5091487;28;20030;-80
2021/10/05 01:09:35;;;;;;;20.75;6.97;;;359.00;2278.40;;;;;;5091188;28;20171;-75
2021/10/05 01:12:02;;;;;;;14.40;7.50;;;359.00;2278.40;;;;;;5091611;28;20047;-76
2021/10/05 01:14:28;;;;;;;18.23;7.90;;;359.00;2278.40;;;;;;5091127;28;20088;-75
2021/10/05 01:16:56;;;;;;;13.75;7.32;;;358.90;2278.40;;;;;;5091317;28;20036;-76
2021/10/05 01:19:22;;;;;;;13.70;6.68;;;358.80;2278.40;;;;;;5108755;28;20016;-76
2021/10/05 01:21:48;;;;;;;26.10;8.32;;;358.80;2304.00;;;;;;5090769;28;20024;-78
2021/10/05 01:24:16;;;;;;;18.15;7.72;;;358.80;2304.00;;;;;;5090886;28;20396;-80
2021/10/05 01:26:44;;;;;;;18.48;7.60;;;358.80;2304.00;;;;;;5114226;28;20030;-79
2021/10/05 01:29:14;;;;;;;14.27;7.65;;;358.70;2304.00;;;;;;5115605;28;20030;-79
2021/10/05 01:31:43;;;;;;;15.90;8.38;;;358.70;2329.60;;;;;;5089768;28;20042;-78
2021/10/05 01:34:09;;;;;;;26.70;7.60;;;358.70;2329.60;;;;;;5091630;28;20200;-78
2021/10/05 01:36:36;;;;;;;18.70;8.65;;;358.70;2329.60;;;;;;5091071;28;20035;-78
2021/10/05 01:39:19;;;;;;;18.42;8.15;;;358.70;2329.60;;;;;;5115110;28;20019;-75
2021/10/05 01:41:45;;;;;;;17.15;8.30;;;358.70;2329.60;;;;;;5112210;28;20114;-75
2021/10/05 01:44:10;;;;;;;13.18;8.15;;;358.70;2304.00;;;;;;5111735;28;20574;-78
2021/10/05 01:46:36;;;;;;;16.60;8.40;;;358.70;2329.60;;;;;;5113452;28;20065;-77
2021/10/05 01:49:02;;;;;;;17.90;9.30;;;358.70;2329.60;;;;;;5095567;28;20425;-78
2021/10/05 01:51:28;;;;;;;18.23;9.02;;;358.80;2304.00;;;;;;5111178;28;20019;-78
2021/10/05 01:53:53;;;;;;;16.38;8.70;;;358.70;2329.60;;;;;;5110461;28;20018;-78
2021/10/05 01:56:19;;;;;;;16.05;8.18;;;358.70;2304.00;;;;;;5091822;28;20481;-78
2021/10/05 01:58:45;;;;;;;20.75;8.25;;;358.60;2329.60;;;;;;5110798;28;20016;-78
2021/10/05 02:01:11;;;;;;;15.25;8.68;;;358.50;2329.60;;;;;;5092044;28;20020;-78
2021/10/05 02:03:36;;;;;;;14.57;8.45;;;358.50;2329.60;;;;;;5110342;28;20027;-78
2021/10/05 02:06:02;;;;;;;21.38;8.25;;;358.50;2329.60;;;;;;5111158;28;20370;-79
2021/10/05 02:08:28;;;;;;;14.85;8.65;;;358.50;2329.60;;;;;;5110860;28;20057;-78
2021/10/05 02:10:54;;;;;;;18.33;9.20;;;358.40;2329.60;;;;;;5093070;28;20043;-78
2021/10/05 02:13:20;;;;;;;17.35;8.60;;;358.40;2329.60;;;;;;5093648;28;20015;-78
2021/10/05 02:15:46;;;;;;;17.88;9.02;;;358.40;2329.60;;;;;;5111409;28;20527;-77
2021/10/05 02:18:11;;;;;;;15.32;8.75;;;333.70;2329.60;;;;;;5093480;28;20465;-78
2021/10/05 02:20:37;;;;;;;24.30;8.70;;;333.70;2329.60;;;;;;5111306;28;20043;-79
2021/10/05 02:23:03;;;;;;;19.23;8.88;;;333.60;2329.60;;;;;;5093386;28;20126;-76
2021/10/05 02:25:29;;;;;;;14.48;8.82;;;333.70;2329.60;;;;;;5111332;28;20016;-78
2021/10/05 02:27:54;;;;;;;18.70;9.23;;;333.60;2329.60;;;;;;5111253;28;20016;-78
2021/10/05 02:30:20;;;;;;;22.48;9.38;;;333.50;2329.60;;;;;;5093513;28;20068;-79
2021/10/05 02:32:46;;;;;;;18.73;8.80;;;333.50;2329.60;;;;;;5096752;28;20038;-79
2021/10/05 02:35:13;;;;;;;15.82;9.35;;;333.50;2329.60;;;;;;5114895;28;20027;-78
2021/10/05 02:37:39;;;;;;;15.32;9.25;;;333.50;2329.60;;;;;;5114820;28;20133;-78
2021/10/05 02:40:09;;;;;;;18.73;9.60;;;333.60;2329.60;;;;;;5114739;28;20019;-77
2021/10/05 02:42:36;;;;;;;17.95;9.00;;;333.50;2329.60;;;;;;5096711;28;20054;-77
2021/10/05 02:45:03;;;;;;;14.52;9.23;;;333.60;2329.60;;;;;;5096776;28;20022;-76
2021/10/05 02:47:28;;;;;;;19.27;11.20;;;333.40;2329.60;;;;;;5114498;28;20473;-75
2021/10/05 02:49:54;;;;;;;18.02;9.10;;;333.40;2329.60;;;;;;5114611;28;20031;-77
2021/10/05 02:52:21;;;;;;;15.93;9.85;;;333.40;2329.60;;;;;;5114610;28;20020;-78
2021/10/05 02:54:47;;;;;;;14.50;8.60;;;333.40;2329.60;;;;;;5105646;28;20046;-78
2021/10/05 02:57:15;;;;;;;17.35;11.18;;;333.40;2329.60;;;;;;5095781;28;20101;-76
2021/10/05 02:59:42;;;;;;;14.65;8.98;;;333.40;2329.60;;;;;;5096301;28;20067;-78
2021/10/05 03:02:08;;;;;;;15.00;8.95;;;333.40;2329.60;;;;;;5114436;28;20115;-78
2021/10/05 03:04:35;;;;;;;15.35;8.98;;;333.40;2329.60;;;;;;5096027;28;20024;-77
2021/10/05 03:07:03;;;;;;;15.98;9.32;;;333.40;2329.60;;;;;;5114262;28;20477;-77
2021/10/05 03:09:29;;;;;;;19.35;10.18;;;333.40;2329.60;;;;;;5095608;28;20047;-76
2021/10/05 03:11:55;;;;;;;17.35;10.18;;;333.30;2329.60;;;;;;5114154;28;20113;-76
2021/10/05 03:14:21;;;;;;;18.52;8.93;;;333.20;2329.60;;;;;;5113692;28;20019;-76
2021/10/05 03:16:46;;;;;;;17.48;9.13;;;333.10;2329.60;;;;;;5095572;28;20035;-76
2021/10/05 03:19:13;;;;;;;16.65;10.73;;;333.00;2329.60;;;;;;5114135;28;20020;-76
2021/10/05 03:21:39;;;;;;;17.38;9.40;;;333.00;2329.60;;;;;;5113796;28;20053;-76
2021/10/05 03:24:05;;;;;;;20.85;10.23;;;333.00;2329.60;;;;;;5114036;28;20031;-75
2021/10/05 03:26:31;;;;;;;21.20;10.48;;;333.10;2329.60;;;;;;5095378;28;20110;-76
2021/10/05 03:28:57;;;;;;;14.98;9.95;;;333.00;2329.60;;;;;;5113915;28;20095;-76
2021/10/05 03:31:22;;;;;;;27.02;10.88;;;333.00;2329.60;;;;;;5113518;28;20094;-76
2021/10/05 03:33:48;;;;;;;19.90;10.40;;;333.00;2329.60;;;;;;5106077;28;20087;-76
2021/10/05 03:36:15;;;;;;;17.42;10.75;;;333.00;2329.60;;;;;;5104139;28;20032;-80
2021/10/05 03:38:42;;;;;;;22.95;10.68;;;333.10;2329.60;;;;;;5113826;28;20098;-75
2021/10/05 03:41:09;;;;;;;17.75;10.25;;;333.10;2329.60;;;;;;5113158;28;20024;-78
2021/10/05 03:43:36;;;;;;;19.02;9.90;;;333.00;2329.60;;;;;;5113326;28;20392;-79
2021/10/05 03:46:02;;;;;;;24.67;10.40;;;333.00;2329.60;;;;;;5113500;28;20425;-75
2021/10/05 03:48:27;;;;;;;16.98;9.93;;;333.10;2329.60;;;;;;5105565;28;20077;-78
2021/10/05 03:50:53;;;;;;;20.40;10.15;;;333.10;2329.60;;;;;;5104528;28;20019;-76
2021/10/05 03:53:20;;;;;;;17.85;9.30;;;333.20;2329.60;;;;;;5091574;28;20035;-77
2021/10/05 03:55:52;;;;;;;16.35;8.90;;;333.20;2329.60;;;;;;5094476;28;20035;-76
2021/10/05 03:58:19;;;;;;;13.43;8.15;;;333.20;2329.60;;;;;;5113103;28;20368;-76
2021/10/05 04:00:45;;;;;;;19.35;10.50;;;333.20;2329.60;;;;;;5113551;28;20020;-76
2021/10/05 04:03:11;;;;;;;18.65;9.38;;;333.60;2329.60;;;;;;5094795;28;20053;-76
2021/10/05 04:05:37;;;;;;;14.27;8.57;;;333.30;2329.60;;;;;;5112938;28;20107;-77
2021/10/05 04:08:03;;;;;;;16.40;8.40;;;333.20;2329.60;;;;;;5094844;28;20016;-76
2021/10/05 04:10:29;;;;;;;27.40;9.65;;;333.30;2329.60;;;;;;5112581;28;20039;-76
2021/10/05 04:12:55;;;;;;;13.82;8.23;;;333.30;2329.60;;;;;;5094183;28;20043;-76
2021/10/05 04:15:21;;;;;;;18.20;9.60;;;333.20;2329.60;;;;;;5112720;28;20442;-77
2021/10/05 04:17:46;;;;;;;15.90;9.00;;;333.20;2329.60;;;;;;5094547;28;20034;-77
2021/10/05 04:20:13;;;;;;;20.13;9.70;;;333.20;2329.60;;;;;;5112736;28;20015;-76
2021/10/05 04:22:39;;;;;;;15.25;8.38;;;333.20;2329.60;;;;;;5112935;28;20019;-77
2021/10/05 04:25:06;;;;;;;25.65;8.70;;;333.30;2329.60;;;;;;5093680;28;20081;-79
2021/10/05 04:27:36;;;;;;;14.40;8.52;;;333.20;2329.60;;;;;;5112830;28;20421;-78
2021/10/05 04:30:04;;;;;;;22.88;8.95;;;333.30;2329.60;;;;;;5110401;28;20024;-76
2021/10/05 04:32:30;;;;;;;15.43;9.35;;;333.30;2329.60;;;;;;5112539;28;20146;-79
2021/10/05 04:34:55;;;;;;;19.08;9.73;;;333.20;2329.60;;;;;;5112738;28;20484;-79
2021/10/05 04:37:21;;;;;;;16.38;8.20;;;333.30;2329.60;;;;;;5112686;28;20392;-75
2021/10/05 04:39:47;;;;;;;23.90;8.95;;;333.30;2329.60;;;;;;5112448;28;20087;-77
2021/10/05 04:42:13;;;;;;;15.77;8.82;;;333.40;2329.60;;;;;;5112289;28;20031;-75
2021/10/05 04:44:38;;;;;;;18.02;8.68;;;333.40;2329.60;;;;;;5112758;28;20435;-78
2021/10/05 04:47:05;;;;;;;16.23;8.00;;;333.40;2329.60;;;;;;5105565;28;20032;-77
2021/10/05 04:49:31;;;;;;;17.40;8.63;;;333.40;2329.60;;;;;;5087945;28;20020;-77
2021/10/05 04:51:57;;;;;;;20.75;8.57;;;333.60;2329.60;;;;;;5094265;28;20039;-78
2021/10/05 04:54:23;;;;;;;20.75;8.13;;;333.60;2329.60;;;;;;5111166;28;20027;-76
2021/10/05 04:56:49;;;;;;;15.30;8.73;;;333.70;2329.60;;;;;;5112283;28;20028;-75
2021/10/05 04:59:18;;;;;;;16.25;8.32;;;333.70;2329.60;;;;;;5112102;28;20016;-77
2021/10/05 05:01:44;;;;;;;12.57;7.20;;;333.70;2329.60;;;;;;5091018;28;20034;-76
2021/10/05 05:04:10;;;;;;;16.42;7.80;;;333.70;2329.60;;;;;;5093859;28;20035;-76
2021/10/05 05:06:38;;;;;;;18.65;10.48;;;358.40;2329.60;;;;;;5112226;28;20027;-77
2021/10/05 05:09:04;;;;;;;19.85;8.10;;;358.40;2329.60;;;;;;5109402;28;20019;-76
2021/10/05 05:11:30;;;;;;;13.65;7.47;;;358.50;2329.60;;;;;;5112030;28;20221;-76
2021/10/05 05:13:56;;;;;;;15.65;7.35;;;358.60;2329.60;;;;;;5111924;28;20020;-76
2021/10/05 05:16:22;;;;;;;21.65;8.43;;;358.60;2329.60;;;;;;5111766;28;20028;-75
2021/10/05 05:18:48;;;;;;;14.15;7.18;;;358.70;2329.60;;;;;;5108304;28;20012;-82
2021/10/05 05:21:14;;;;;;;12.68;7.30;;;358.80;2329.60;;;;;;5110995;28;20019;-76
2021/10/05 05:23:39;;;;;;;12.90;7.65;;;358.80;2329.60;;;;;;5126231;28;20015;-78
2021/10/05 05:26:05;;;;;;;13.07;7.05;;;358.90;2329.60;;;;;;5114413;28;20019;-79
2021/10/05 05:28:31;;;;;;;15.80;6.90;;;359.00;2329.60;;;;;;5111959;28;20486;-78
2021/10/05 05:30:57;;;;;;;21.98;7.90;;;359.10;2329.60;;;;;;5111644;28;20020;-80
2021/10/05 05:33:23;;;;;;;14.52;6.47;;;359.10;2329.60;;;;;;5111747;28;20020;-77
2021/10/05 05:35:49;;;;;;;13.27;6.57;;;359.30;2329.60;;;;;;5111564;28;20114;-75
2021/10/05 05:38:16;;;;;;;12.82;6.53;;;359.30;2329.60;;;;;;5111902;28;20023;-74
2021/10/05 05:40:42;;;;;;;17.65;6.95;;;384.10;2304.00;;;;;;5111647;28;20110;-78
2021/10/05 05:43:07;;;;;;;12.52;6.03;;;384.20;2304.00;;;;;;5111804;28;20138;-74
2021/10/05 05:45:34;;;;;;;18.42;7.72;;;384.30;2278.40;;;;;;5112091;28;20118;-78
2021/10/05 05:48:00;;;;;;;13.30;6.35;;;384.40;2278.40;;;;;;5092207;28;20019;-76
2021/10/05 05:50:26;;;;;;;13.77;7.50;;;384.60;2252.80;;;;;;5112098;28;20488;-79
2021/10/05 05:52:52;;;;;;;15.65;5.40;;;384.70;2227.20;;;;;;5106987;28;20099;-78
2021/10/05 05:55:17;;;;;;;16.48;6.90;;;384.80;2227.20;;;;;;5111624;28;20024;-78
2021/10/05 05:57:47;;;;;;;14.73;6.15;;;384.90;2176.00;;;;;;5098977;28;20446;-78
2021/10/05 06:00:13;;;;;;;26.23;6.28;;;409.70;2201.60;;;;;;5111366;28;20046;-76
2021/10/05 06:02:39;;;;;;;13.90;6.50;;;409.70;2176.00;;;;;;5111689;28;20073;-79
2021/10/05 06:05:05;;;;;;;16.60;6.07;;;409.90;2176.00;;;;;;5113393;28;20019;-79
2021/10/05 06:07:31;;;;;;;17.15;5.78;;;410.00;2150.40;;;;;;5115114;28;20047;-74
2021/10/05 06:09:57;;;;;;;15.55;6.20;;;410.00;2124.80;;;;;;5115211;28;20469;-76
2021/10/05 06:12:26;;;;;;;12.13;6.10;;;410.10;2124.80;;;;;;5096591;28;20079;-76
2021/10/05 06:14:51;;;;;;;16.65;6.60;;;410.20;2099.20;;;;;;5098146;28;20032;-76
2021/10/05 06:17:17;;;;;;;27.67;6.80;;;410.30;2099.20;;;;;;5115571;28;20037;-77
2021/10/05 06:19:43;;;;;;;16.85;5.70;;;410.40;2073.60;;;;;;5114954;28;20057;-77
2021/10/05 06:22:08;;;;;;;22.73;8.82;;;410.50;2048.00;;;;;;5097414;28;20030;-77
2021/10/05 06:24:34;;;;;;;11.25;5.40;;;435.20;2048.00;;;;;;5115163;28;20077;-78
2021/10/05 06:27:00;;;;;;;18.05;6.53;;;435.30;2022.40;;;;;;5094697;28;20491;-78
2021/10/05 06:29:26;;;;;;;25.60;5.90;;;435.40;2022.40;;;;;;5095909;28;20027;-76
2021/10/05 06:31:58;;;;;;;19.05;7.40;;;435.50;1996.80;;;;;;5096525;28;20036;-76
2021/10/05 06:34:24;;;;;;;18.20;5.05;;;435.60;1996.80;;;;;;5113823;28;20062;-76
2021/10/05 06:36:49;;;;;;;19.25;6.53;;;435.80;1971.20;;;;;;5114446;28;20059;-77
2021/10/05 06:39:15;;;;;;;27.15;6.18;;;435.80;1971.20;;;;;;5114804;28;20062;-78
2021/10/05 06:41:41;;;;;;;16.70;6.72;;;435.90;1971.20;;;;;;5090326;28;21552;-77
2021/10/05 06:44:07;;;;;;;16.67;6.90;;;435.90;1945.60;;;;;;5113333;28;20020;-76
2021/10/05 06:54:00;;;;;;;17.33;6.07;;;461.10;1945.60;;;;;;4979152;23;20423;-76
2021/10/05 06:56:25;;;;;;;22.48;6.93;;;461.00;1920.00;;;;;;4980849;28;20039;-78
2021/10/05 06:58:51;;;;;;;21.70;6.00;;;461.20;1920.00;;;;;;4994957;28;20037;-78
2021/10/05 07:01:17;;;;;;;31.45;8.38;;;461.20;1894.40;;;;;;4988124;28;20030;-77
2021/10/05 07:03:43;;;;;;;15.77;6.13;;;461.20;1868.80;;;;;;4986375;28;20117;-76
2021/10/05 07:06:08;;;;;;;25.13;6.20;;;461.30;1868.80;;;;;;4974966;28;20019;-77
2021/10/05 07:08:34;;;;;;;15.68;6.68;;;461.40;1868.80;;;;;;4985634;28;20027;-81
2021/10/05 07:11:00;;;;;;;17.92;5.80;;;461.50;1843.20;;;;;;4975084;28;20026;-79
2021/10/05 07:13:26;;;;;;;20.05;6.30;;;461.60;1843.20;;;;;;5009308;28;20361;-75
2021/10/05 07:15:51;;;;;;;27.30;6.78;;;486.40;1817.60;;;;;;4975143;28;20089;-77
2021/10/05 07:18:17;;;;;;;25.70;6.57;;;486.40;1817.60;;;;;;4977297;28;20014;-77
2021/10/05 07:20:43;;;;;;;34.75;7.85;;;486.50;1817.60;;;;;;4978836;28;20528;-76
2021/10/05 07:23:08;;;;;;;17.50;6.63;;;486.50;1792.00;;;;;;4999606;28;20156;-78
2021/10/05 07:25:34;;;;;;;22.20;6.88;;;486.60;1792.00;;;;;;5000212;28;20022;-77
2021/10/05 07:28:00;;;;;;;20.60;5.85;;;486.70;1766.40;;;;;;4993460;28;20049;-79
2021/10/05 07:30:26;;;;;;;32.58;7.60;;;486.70;1766.40;;;;;;4994336;28;20022;-77
2021/10/05 07:33:02;;;;;;;28.70;7.65;;;486.50;1766.40;;;;;;4993938;28;20097;-76
2021/10/05 07:35:28;;;;;;;28.83;7.47;;;486.80;1792.00;;;;;;4992135;28;20507;-76
2021/10/05 07:37:55;;;;;;;25.27;7.60;;;486.70;1766.40;;;;;;4992234;28;20042;-76
2021/10/05 07:40:22;;;;;;;24.80;6.78;;;486.90;1766.40;;;;;;5012794;28;20037;-75
2021/10/05 07:42:53;;;;;;;24.25;7.53;;;487.10;1740.80;;;;;;5013661;28;20080;-75
2021/10/05 07:45:19;;;;;;;18.73;7.22;;;487.10;1740.80;;;;;;5012987;28;20018;-78
2021/10/05 07:47:45;;;;;;;16.65;6.20;;;487.20;1740.80;;;;;;5013577;28;20057;-77
2021/10/05 07:50:12;;;;;;;25.38;7.20;;;487.30;1740.80;;;;;;5009754;28;20025;-77
2021/10/05 07:52:37;;;;;;;19.67;6.38;;;487.30;1715.20;;;;;;4988088;28;20078;-76
2021/10/05 07:55:05;;;;;;;22.05;5.95;;;487.30;1715.20;;;;;;4973922;28;20066;-77
2021/10/05 07:57:30;;;;;;;19.98;6.72;;;487.30;1715.20;;;;;;4975383;28;20023;-76
2021/10/05 07:59:56;;;;;;;20.25;6.05;;;487.20;1715.20;;;;;;4985541;28;20353;-76
2021/10/05 08:02:22;;;;;;;31.27;8.88;;;487.30;1715.20;;;;;;4973787;28;20038;-76
2021/10/05 08:04:47;;;;;;;28.90;7.47;;;512.10;1715.20;;;;;;4959925;28;20469;-78
2021/10/05 08:07:13;;;;;;;29.95;6.80;;;512.10;1689.60;;;;;;4959731;28;20039;-75
2021/10/05 08:09:39;;;;;;;19.15;6.70;;;512.10;1689.60;;;;;;4962962;28;20046;-76
2021/10/05 08:12:05;;;;;;;24.15;7.07;;;512.20;1689.60;;;;;;4974866;28;20504;-79
2021/10/05 08:14:31;;;;;;;25.63;7.35;;;512.30;1689.60;;;;;;4958717;28;20030;-76
2021/10/05 08:16:59;;;;;;;31.20;7.75;;;;;;;;;;4964154;28;20031;-76
2021/10/05 08:19:25;;;;;;;28.73;7.82;;;512.60;1664.00;;;;;;4974902;28;20011;-76
2021/10/05 08:21:52;;;;;;;26.85;7.28;;;512.60;1664.00;;;;;;4961633;28;20042;-76
2021/10/05 08:24:19;;;;;;;19.92;6.00;;;512.60;1638.40;;;;;;4978418;28;20026;-75
2021/10/05 08:26:45;;;;;;;23.40;5.65;;;512.70;1664.00;;;;;;4975170;28;20030;-76
2021/10/05 08:29:11;;;;;;;19.15;5.95;;;512.80;1638.40;;;;;;4966412;28;20027;-77
2021/10/05 08:31:37;;;;;;;46.83;7.30;;;512.90;1638.40;;;;;;4976368;28;20038;-75
2021/10/05 08:34:02;;;;;;;21.95;7.05;;;537.60;1664.00;;;;;;4973041;28;20046;-76
2021/10/05 08:36:28;;;;;;;30.90;5.65;;;512.90;1638.40;;;;;;4973382;28;20034;-74
2021/10/05 08:38:54;;;;;;;28.58;7.50;;;537.60;1638.40;;;;;;4973100;28;20391;-77
2021/10/05 08:41:21;;;;;;;20.63;7.53;;;537.70;1638.40;;;;;;4973257;28;20070;-76
2021/10/05 08:43:47;;;;;;;35.05;7.57;;;537.70;1612.80;;;;;;4974419;28;20023;-75
2021/10/05 08:46:13;;;;;;;23.55;6.03;;;537.80;1612.80;;;;;;4963727;28;20039;-75
2021/10/05 08:48:39;;;;;;;27.15;6.63;;;537.90;1638.40;;;;;;4971281;28;20054;-79
2021/10/05 08:51:07;;;;;;;29.55;7.18;;;538.10;1612.80;;;;;;4982736;28;20523;-77
2021/10/05 08:53:40;;;;;;;19.80;7.13;;;538.10;1612.80;;;;;;4999529;28;20056;-77
2021/10/05 08:56:09;;;;;;;21.60;5.93;;;538.00;1587.20;;;;;;4996660;28;20418;-77
2021/10/05 08:58:36;;;;;;;23.65;6.47;;;538.00;1612.80;;;;;;5007416;28;20034;-79
2021/10/05 09:01:20;;;;;;;14.68;6.10;;;538.20;1587.20;;;;;;4995257;28;20011;-77
2021/10/05 09:03:51;;;;;;;24.85;6.20;;;538.30;1587.20;;;;;;4987628;28;20121;-78
2021/10/05 09:06:18;;;;;;;18.23;6.97;;;538.30;1587.20;;;;;;4992340;28;20026;-77
2021/10/05 09:08:46;;;;;;;21.20;5.70;;;538.30;1561.60;;;;;;4992371;28;20162;-75
2021/10/05 09:11:14;;;;;;;18.58;6.18;;;538.50;1561.60;;;;;;4992754;28;20056;-76
2021/10/05 09:13:50;;;;;;;21.65;6.05;;;538.50;1561.60;;;;;;4978672;28;20385;-78
2021/10/05 09:16:20;;;;;;;16.00;5.70;;;563.30;1612.80;;;;;;4979046;28;20092;-76
2021/10/05 09:19:05;;;;;;;22.42;5.90;;;563.40;1561.60;;;;;;4992579;28;20055;-77
2021/10/05 09:21:37;;;;;;;23.13;6.70;;;563.50;1561.60;;;;;;4979715;28;20021;-77
2021/10/05 09:24:07;;;;;;;30.02;7.15;;;563.70;1561.60;;;;;;4998079;28;20035;-77
2021/10/05 09:26:50;;;;;;;22.30;6.22;;;563.80;1536.00;;;;;;4989103;28;20472;-76
2021/10/05 09:32:40;;;;;;;18.85;6.43;;;563.90;1536.00;;;;;;5026806;23;20057;-78
2021/10/05 09:35:06;;;;;;;17.08;6.20;;;564.10;1536.00;;;;;;5013786;28;20121;-79
2021/10/05 09:37:34;;;;;;;19.85;5.93;;;564.10;1510.40;;;;;;5023773;28;20064;-76
2021/10/05 09:40:10;;;;;;;19.42;5.80;;;564.10;1510.40;;;;;;5032658;28;20025;-79
2021/10/05 09:42:43;;;;;;;20.85;6.70;;;564.10;1510.40;;;;;;5033818;28;20030;-80
2021/10/05 09:45:18;;;;;;;26.60;6.50;;;588.80;1484.80;;;;;;5022367;28;20032;-80
2021/10/05 09:47:49;;;;;;;17.65;5.65;;;589.00;1484.80;;;;;;5035348;28;20056;-78
2021/10/05 09:50:17;;;;;;;22.83;6.05;;;588.90;1484.80;;;;;;5025625;28;20104;-78
2021/10/05 09:52:52;;;;;;;25.27;5.80;;;588.90;1459.20;;;;;;5016628;28;20068;-77
2021/10/05 10:41:40;;;;;;;20.75;6.15;;;614.90;1356.80;;;;;;3897035;23;20071;-76
2021/10/05 10:44:10;;;;;;;19.10;5.55;;;614.90;1356.80;;;;;;4917791;29;20028;-85
2021/10/05 10:46:38;;;;;;;19.10;6.40;;;614.80;1356.80;;;;;;4936911;29;20130;-76
2021/10/05 10:49:19;;;;;;;17.48;5.28;;;615.00;1356.80;;;;;;4918945;29;20078;-87
2021/10/05 10:51:48;;;;;;;27.48;6.40;;;615.20;1331.20;;;;;;4929919;29;20036;-82
2021/10/05 10:54:20;;;;;;;22.90;8.98;;;615.30;1331.20;;;;;;4920493;29;20136;-86
2021/10/05 10:56:57;;;;;;;25.30;8.25;;;615.00;1356.80;;;;;;4917498;29;20063;-80
2021/10/05 10:59:26;;;;;;;26.70;6.80;;;615.00;1356.80;;;;;;4901778;29;20056;-81
2021/10/05 11:05:18;;;;;;;25.75;6.93;;;615.30;1331.20;;;;;;5189243;23;19931;-77
2021/10/05 11:07:58;;;;;;;13.95;6.38;;;615.20;1331.20;;;;;;4943501;23;20058;-83
2021/10/05 11:10:29;;;;;;;29.15;6.75;;;615.20;1331.20;;;;;;4919074;29;20036;-77
2021/10/05 11:13:01;;;;;;;25.35;6.90;;;615.30;1331.20;;;;;;4937534;29;20020;-88
2021/10/05 11:15:47;;;;;;;23.23;7.25;;;640.00;1331.20;;;;;;4935865;29;20031;-91
2021/10/05 11:18:33;;;;;;;32.30;6.63;;;640.40;1305.60;;;;;;4937670;29;20035;-83
2021/10/05 11:21:02;;;;;;;11.70;5.75;;;640.20;1305.60;;;;;;4935622;29;20031;-84
2021/10/05 11:23:28;;;;;;;23.20;7.40;;;640.20;1305.60;;;;;;4916395;29;20028;-82
2021/10/05 11:25:55;;;;;;;21.75;6.15;;;640.30;1305.60;;;;;;4920097;29;20031;-87
2021/10/05 11:28:24;;;;;;;27.00;6.35;;;640.50;1305.60;;;;;;4916831;29;20024;-81
2021/10/05 11:30:56;;;;;;;15.52;5.72;;;640.40;1305.60;;;;;;4936739;29;20103;-82
2021/10/05 11:33:27;;;;;;;27.95;7.43;;;640.70;1280.00;;;;;;4936881;29;20384;-86
2021/10/05 11:35:56;;;;;;;24.45;6.55;;;640.70;1280.00;;;;;;4936458;29;20031;-83
2021/10/05 11:38:22;;;;;;;32.92;7.15;;;640.50;1305.60;;;;;;4920190;29;20027;-85
2021/10/05 11:40:57;;;;;;;29.05;7.75;;;640.70;1305.60;;;;;;4936822;29;20047;-86
2021/10/05 11:43:41;;;;;;;32.42;7.47;;;640.50;1331.20;;;;;;4936867;29;20474;-86
2021/10/05 11:46:19;;;;;;;33.90;7.25;;;640.60;1331.20;;;;;;4920199;29;20117;-86
2021/10/05 11:48:51;;;;;;;28.80;7.22;;;640.70;1305.60;;;;;;4935820;29;20056;-87
2021/10/05 11:51:19;;;;;;;33.88;6.63;;;640.60;1305.60;;;;;;4919471;29;20083;-84
2021/10/05 11:53:46;;;;;;;48.70;7.63;;;640.60;1305.60;;;;;;4936430;29;20024;-84
2021/10/05 11:56:14;;;;;;;34.38;8.18;;;640.70;1305.60;;;;;;4936618;29;20071;-77
2021/10/05 11:58:50;;;;;;;30.90;8.85;;;640.90;1305.60;;;;;;4936600;29;20023;-83
2021/10/05 12:01:18;;;;;;;37.42;7.85;;;640.90;1305.60;;;;;;4935033;29;20114;-77
2021/10/05 12:03:45;;;;;;;26.00;6.60;;;640.90;1280.00;;;;;;4936384;29;20079;-88
2021/10/05 12:06:11;;;;;;;28.40;6.47;;;640.90;1305.60;;;;;;4936616;29;20056;-90
2021/10/05 12:08:46;;;;;;;42.05;7.50;;;640.70;1305.60;;;;;;4936912;29;20032;-90
2021/10/05 12:11:12;;;;;;;30.70;6.25;;;640.40;1305.60;;;;;;4936523;29;20504;-88
2021/10/05 12:13:38;;;;;;;23.77;6.82;;;640.70;1305.60;;;;;;4936603;29;20031;-76
2021/10/05 12:16:17;;;;;;;26.65;7.18;;;640.50;1305.60;;;;;;4936736;29;20114;-86
2021/10/05 12:18:54;;;;;;;30.20;7.07;;;640.70;1305.60;;;;;;4935997;29;20030;-86
2021/10/05 12:21:20;;;;;;;31.75;6.38;;;640.50;1305.60;;;;;;4935748;29;20028;-87
2021/10/05 12:23:55;;;;;;;38.80;8.32;;;640.30;1305.60;;;;;;4934490;29;20039;-86
2021/10/05 12:26:21;;;;;;;35.35;7.20;;;640.30;1331.20;;;;;;4935470;29;20055;-85
2021/10/05 12:29:00;;;;;;;32.92;7.53;;;640.30;1331.20;;;;;;4919244;29;20062;-85
2021/10/05 12:43:24;;;;;;;20.35;6.63;;;640.30;1331.20;;;;;;5130669;27;20781;-81
2021/10/05 12:45:55;;;;;;;29.90;6.18;;;640.40;1305.60;;;;;;5117650;28;20023;-89
2021/10/05 12:48:39;;;;;;;22.00;5.70;;;640.40;1305.60;;;;;;5130848;27;20072;-85
2021/10/05 12:54:40;;;;;;;22.85;6.43;;;640.40;1305.60;;;;;;2036799;23;20057;-84
2021/10/05 12:57:08;;;;;;;24.30;6.00;;;615.30;1331.20;;;;;;4970710;28;20023;-83
2021/10/05 12:59:34;;;;;;;27.52;6.43;;;640.10;1331.20;;;;;;4970567;28;20033;-91
2021/10/05 13:02:00;;;;;;;22.50;5.35;;;640.20;1331.20;;;;;;4970397;28;20019;-87
2021/10/05 13:04:25;;;;;;;34.83;5.93;;;640.20;1331.20;;;;;;4970457;28;20106;-87
2021/10/05 13:06:51;;;;;;;22.98;5.20;;;640.10;1331.20;;;;;;4951890;28;20063;-85
2021/10/05 13:09:17;;;;;;;26.35;5.43;;;640.00;1331.20;;;;;;4969890;28;20030;-89
2021/10/05 13:11:43;;;;;;;29.00;6.57;;;640.00;1331.20;;;;;;4953457;28;20069;-88
2021/10/05 13:14:08;;;;;;;22.52;5.95;;;640.00;1331.20;;;;;;4970295;28;20050;-89
2021/10/05 13:16:34;;;;;;;29.63;6.55;;;615.20;1356.80;;;;;;4953540;28;20030;-86
2021/10/05 13:19:00;;;;;;;30.15;6.50;;;615.20;1356.80;;;;;;4970157;28;20442;-87
2021/10/05 13:21:26;;;;;;;26.08;6.28;;;615.10;1356.80;;;;;;4970471;28;20056;-90
2021/10/05 13:23:51;;;;;;;38.05;6.75;;;615.00;1356.80;;;;;;4970278;28;20038;-89
2021/10/05 13:26:17;;;;;;;14.30;5.50;;;615.00;1356.80;;;;;;4970460;28;20037;-86